Hauptseite
METAR-TAF:

METAR-TAF

Flughäfen :

RAF Cranwell

Cranwell, England

Breite: 53-02N, Länge: 000-30W, Höhe: 67 m

Beobachtung

Neuester Wetterbericht von vor 56 Minuten, um 12:50 UTC
Wind 7 kt aus Nord/Nordwest
Temperatur 21°C
Luftfeuchtigkeit 43%
Luftdruck 1035 hPa
Sichtweite 10 km oder mehr
Leicht bewölkt in der Höhe von 4500 ft
Aufgelockert bewölkt in der Höhe von 25000 ft

METAR: EGYD 271250Z 33007KT 9999 FEW045 SCT250 21/08 Q1035 NOSIG RMK BLU BLU

Zeit: 14:46 (13:46 UTC)

Prognose

Neuester Wetterbericht von vor 3 Stunden und 13 Minuten, um 10:33 UTC
Gültige Prognose vom 27 um 12 UTC bis 27 um 17 UTC
Wind 10 kt aus Nord
Sichtweite 10 km oder mehr
Leicht bewölkt in der Höhe von 4000 ft

TAF: EGYD 271033Z 2712/2717 01010KT 9999 FEW040

Wetterbeobachtungen und Prognosen von mehr als 4000 Flughäfen (METAR und TAF Bericht).

Die verfügbaren Stationen werden durch gelbe und rote Markierungen auf der Karte dargestellt.

Führen Sie die Maus auf sie, um den Namen der Station zu sehen.

Darauf klicken, um die Beobachtung von Wetterbeobachtungen und Prognosen zu sehen.

Um die Karte zu ändern : klicken Sie auf den grünen Tasten mit einem schwarzen Kreuz Zum Vergrößern, auf den grünen Button mit einem Gedankenstrich zu verkleinern, oder auf die grünen Pfeile für benachbarte Karten.


METAR-TAF: